createdAt,value
2023-03-29T00:00:12.630Z,69
2023-03-29T00:01:43.045Z,69
2023-03-29T00:03:13.508Z,69
2023-03-29T00:04:43.785Z,69
2023-03-29T00:06:14.066Z,69
2023-03-29T00:07:44.501Z,69
2023-03-29T00:09:14.796Z,69
2023-03-29T00:10:45.138Z,69
2023-03-29T00:12:15.524Z,69
2023-03-29T00:13:45.845Z,69
2023-03-29T00:15:16.214Z,69
2023-03-29T00:17:18.629Z,69
2023-03-29T00:18:48.941Z,69
2023-03-29T00:20:19.305Z,69
2023-03-29T00:21:49.719Z,69
2023-03-29T00:23:20.143Z,69
2023-03-29T00:24:50.532Z,69
2023-03-29T00:26:20.872Z,69
2023-03-29T00:27:51.272Z,69
2023-03-29T00:29:21.690Z,69
2023-03-29T00:30:52.044Z,69
2023-03-29T00:32:22.456Z,69
2023-03-29T00:33:52.742Z,69
2023-03-29T00:35:23.105Z,69
2023-03-29T00:36:53.495Z,69
2023-03-29T00:38:23.816Z,69
2023-03-29T00:39:54.110Z,69
2023-03-29T00:41:24.471Z,69
2023-03-29T00:42:54.844Z,69
2023-03-29T00:44:25.169Z,69
2023-03-29T00:45:55.555Z,69
2023-03-29T00:47:25.910Z,69
2023-03-29T00:48:56.333Z,69
2023-03-29T00:50:26.669Z,69
2023-03-29T00:51:57.072Z,69
2023-03-29T00:53:27.518Z,69
2023-03-29T00:54:57.785Z,69
2023-03-29T00:56:28.135Z,69
2023-03-29T00:57:58.595Z,69
2023-03-29T00:59:28.867Z,69
2023-03-29T01:00:59.329Z,69
2023-03-29T01:02:29.764Z,69
2023-03-29T01:04:00.042Z,69
2023-03-29T01:05:30.325Z,69
2023-03-29T01:07:00.899Z,69
2023-03-29T01:08:31.183Z,69
2023-03-29T01:10:01.498Z,69
2023-03-29T01:11:31.844Z,69
2023-03-29T01:13:02.206Z,69
2023-03-29T01:14:32.516Z,69
2023-03-29T01:16:02.915Z,69
2023-03-29T01:17:33.343Z,69
2023-03-29T01:19:03.692Z,69
2023-03-29T01:20:34.115Z,69
2023-03-29T01:22:04.478Z,69
2023-03-29T01:24:07.258Z,69
2023-03-29T01:25:37.326Z,69
2023-03-29T01:27:07.767Z,69
2023-03-29T01:28:38.011Z,69
2023-03-29T01:30:40.407Z,69
2023-03-29T01:32:10.909Z,69
2023-03-29T01:33:41.166Z,69
2023-03-29T01:35:11.584Z,69
2023-03-29T01:36:41.928Z,69
2023-03-29T01:38:12.315Z,69
2023-03-29T01:39:42.723Z,69
2023-03-29T01:41:12.962Z,69
2023-03-29T01:42:43.291Z,69
2023-03-29T01:44:13.675Z,69
2023-03-29T01:45:43.926Z,69
2023-03-29T01:47:14.260Z,69
2023-03-29T01:48:44.627Z,69
2023-03-29T01:50:14.971Z,69
2023-03-29T01:51:45.224Z,69
2023-03-29T01:53:47.626Z,69
2023-03-29T01:55:17.981Z,69
2023-03-29T01:56:48.259Z,69
2023-03-29T01:58:18.406Z,69
2023-03-29T01:59:48.824Z,69
2023-03-29T02:01:19.227Z,69
2023-03-29T02:02:49.563Z,69
2023-03-29T02:04:19.708Z,69
2023-03-29T02:05:50.083Z,69
2023-03-29T02:07:20.433Z,69
2023-03-29T02:08:50.815Z,69
2023-03-29T02:10:21.086Z,69
2023-03-29T02:11:51.443Z,69
2023-03-29T02:13:21.802Z,68
2023-03-29T02:14:52.185Z,69
2023-03-29T02:16:22.490Z,69
2023-03-29T02:17:52.872Z,69
2023-03-29T02:19:23.272Z,69
2023-03-29T02:20:53.656Z,69
2023-03-29T02:22:24.001Z,69
2023-03-29T02:23:54.223Z,69
2023-03-29T02:25:24.642Z,69
2023-03-29T02:26:54.909Z,68
2023-03-29T02:28:25.162Z,69
2023-03-29T02:29:55.572Z,68
2023-03-29T02:31:25.894Z,69
2023-03-29T02:32:56.234Z,69
2023-03-29T02:34:26.630Z,69
2023-03-29T02:35:56.901Z,69
2023-03-29T02:37:59.341Z,69
2023-03-29T02:40:01.777Z,68
2023-03-29T02:41:32.033Z,68
2023-03-29T02:43:02.355Z,68
2023-03-29T02:44:32.708Z,68
2023-03-29T02:46:03.125Z,68
2023-03-29T02:47:33.473Z,68
2023-03-29T02:49:03.793Z,68
2023-03-29T02:50:34.202Z,68
2023-03-29T02:52:04.382Z,68
2023-03-29T02:53:34.789Z,68
2023-03-29T02:55:37.184Z,69
2023-03-29T02:57:07.553Z,68
2023-03-29T02:58:37.737Z,68
2023-03-29T03:00:08.164Z,68
2023-03-29T03:01:38.484Z,68
2023-03-29T03:03:08.853Z,68
2023-03-29T03:04:38.954Z,68
2023-03-29T03:06:41.375Z,68
2023-03-29T03:08:11.629Z,68
2023-03-29T03:09:42.000Z,68
2023-03-29T03:11:12.253Z,68
2023-03-29T03:12:42.671Z,68
2023-03-29T03:14:12.996Z,69
2023-03-29T03:15:43.381Z,68
2023-03-29T03:17:13.691Z,68
2023-03-29T03:18:44.150Z,68
2023-03-29T03:20:19.519Z,69
2023-03-29T03:21:49.857Z,68
2023-03-29T03:23:20.180Z,68
2023-03-29T03:24:50.521Z,69
2023-03-29T03:26:20.920Z,68
2023-03-29T03:27:51.310Z,68
2023-03-29T03:29:21.592Z,68
2023-03-29T03:30:51.970Z,68
2023-03-29T03:32:22.294Z,69
2023-03-29T03:33:52.623Z,68
2023-03-29T03:35:23.009Z,68
2023-03-29T03:36:53.324Z,68
2023-03-29T03:38:23.654Z,68
2023-03-29T03:39:54.014Z,68
2023-03-29T03:41:24.388Z,68
2023-03-29T03:42:54.843Z,68
2023-03-29T03:44:25.266Z,68
2023-03-29T03:45:55.704Z,68
2023-03-29T03:47:26.078Z,68
2023-03-29T03:48:56.415Z,68
2023-03-29T03:50:26.792Z,68
2023-03-29T03:51:57.112Z,68
2023-03-29T03:53:27.448Z,68
2023-03-29T03:54:57.799Z,68
2023-03-29T03:56:28.165Z,68
2023-03-29T03:57:58.512Z,68
2023-03-29T03:59:28.962Z,68
2023-03-29T04:01:31.394Z,68
2023-03-29T04:03:01.923Z,68
2023-03-29T04:04:32.241Z,68
2023-03-29T04:06:02.540Z,68
2023-03-29T04:07:32.850Z,68
2023-03-29T04:09:03.172Z,68
2023-03-29T04:10:33.532Z,68
2023-03-29T04:12:03.918Z,68
2023-03-29T04:13:34.367Z,68
2023-03-29T04:15:04.695Z,68
2023-03-29T04:16:35.056Z,68
2023-03-29T04:18:05.447Z,68
2023-03-29T04:19:35.729Z,68
2023-03-29T04:21:06.032Z,68
2023-03-29T04:22:36.430Z,68
2023-03-29T04:24:06.767Z,68
2023-03-29T04:25:37.118Z,68
2023-03-29T04:27:07.492Z,68
2023-03-29T04:28:37.953Z,68
2023-03-29T04:30:08.360Z,68
2023-03-29T04:31:38.821Z,68
2023-03-29T04:33:09.195Z,68
2023-03-29T04:34:39.488Z,68
2023-03-29T04:36:09.899Z,68
2023-03-29T04:38:12.269Z,68
2023-03-29T04:39:42.597Z,68
2023-03-29T04:41:12.958Z,68
2023-03-29T04:43:15.386Z,68
2023-03-29T04:44:45.835Z,68
2023-03-29T04:46:16.179Z,68
2023-03-29T04:47:46.583Z,68
2023-03-29T04:49:16.871Z,68
2023-03-29T04:50:47.428Z,68
2023-03-29T04:52:17.689Z,68
2023-03-29T04:53:48.011Z,68
2023-03-29T04:55:18.377Z,68
2023-03-29T04:56:48.766Z,68
2023-03-29T04:58:21.584Z,68
2023-03-29T04:59:49.512Z,68
2023-03-29T05:01:19.879Z,68
2023-03-29T05:02:50.263Z,68
2023-03-29T05:04:20.750Z,68
2023-03-29T05:05:50.993Z,68
2023-03-29T05:07:21.384Z,68
2023-03-29T05:08:51.699Z,68
2023-03-29T05:10:22.055Z,68
2023-03-29T05:11:52.441Z,68
2023-03-29T05:13:22.839Z,68
2023-03-29T05:14:53.187Z,68
2023-03-29T05:16:23.576Z,68
2023-03-29T05:17:53.977Z,68
2023-03-29T05:19:24.236Z,68
2023-03-29T05:20:54.660Z,68
2023-03-29T05:22:25.068Z,68
2023-03-29T05:23:55.474Z,68
2023-03-29T05:25:25.843Z,68
2023-03-29T05:27:28.260Z,68
2023-03-29T05:28:58.585Z,68
2023-03-29T05:30:28.953Z,68
2023-03-29T05:31:59.328Z,68
2023-03-29T05:33:29.655Z,68
2023-03-29T05:35:00.048Z,68
2023-03-29T05:36:30.431Z,68
2023-03-29T05:38:32.901Z,68
2023-03-29T05:40:05.457Z,68
2023-03-29T05:41:33.726Z,68
2023-03-29T05:43:36.180Z,68
2023-03-29T05:45:06.579Z,68
2023-03-29T05:46:36.959Z,68
2023-03-29T05:48:07.349Z,68
2023-03-29T05:49:37.726Z,68
2023-03-29T05:51:08.085Z,68
2023-03-29T05:52:38.480Z,68
2023-03-29T05:54:08.891Z,68
2023-03-29T05:55:39.243Z,68
2023-03-29T05:57:09.671Z,68
2023-03-29T05:58:40.051Z,68
2023-03-29T06:00:10.448Z,68
2023-03-29T06:01:40.897Z,68
2023-03-29T06:03:20.129Z,68
2023-03-29T06:04:41.676Z,68
2023-03-29T06:06:11.986Z,68
2023-03-29T06:07:42.368Z,68
2023-03-29T06:09:12.784Z,68
2023-03-29T06:10:43.130Z,68
2023-03-29T06:12:13.518Z,68
2023-03-29T06:13:43.938Z,68
2023-03-29T06:15:14.369Z,68
2023-03-29T06:16:44.743Z,68
2023-03-29T06:18:15.085Z,68
2023-03-29T06:19:45.395Z,68
2023-03-29T06:21:15.777Z,68
2023-03-29T06:23:18.197Z,68
2023-03-29T06:24:48.645Z,68
2023-03-29T06:26:19.092Z,68
2023-03-29T06:28:21.555Z,68
2023-03-29T06:29:51.914Z,68
2023-03-29T06:31:22.299Z,68
2023-03-29T06:32:52.715Z,68
2023-03-29T06:34:22.966Z,68
2023-03-29T06:35:53.424Z,68
2023-03-29T06:37:55.764Z,68
2023-03-29T06:39:26.186Z,68
2023-03-29T06:40:56.648Z,68
2023-03-29T06:42:59.073Z,68
2023-03-29T06:44:29.400Z,68
2023-03-29T06:45:59.762Z,68
2023-03-29T06:47:30.150Z,68
2023-03-29T06:49:00.596Z,68
2023-03-29T06:50:30.971Z,68
2023-03-29T06:52:01.337Z,68
2023-03-29T06:54:03.740Z,68
2023-03-29T06:55:34.092Z,68
2023-03-29T06:57:04.665Z,68
2023-03-29T06:58:35.012Z,68
2023-03-29T07:00:05.322Z,68
2023-03-29T07:01:35.767Z,68
2023-03-29T07:03:06.083Z,68
2023-03-29T07:04:36.508Z,68
2023-03-29T07:06:06.740Z,68
2023-03-29T07:07:37.137Z,68
2023-03-29T07:09:07.376Z,68
2023-03-29T07:10:37.766Z,68
2023-03-29T07:12:08.110Z,68
2023-03-29T07:13:38.484Z,68
2023-03-29T07:15:08.823Z,68
2023-03-29T07:16:39.249Z,68
2023-03-29T07:18:09.575Z,68
2023-03-29T07:19:39.986Z,68
2023-03-29T07:21:10.552Z,68
2023-03-29T07:23:12.859Z,68
2023-03-29T07:24:43.274Z,68
2023-03-29T07:26:13.551Z,68
2023-03-29T07:28:15.951Z,68
2023-03-29T07:29:46.307Z,68
2023-03-29T07:31:16.733Z,68
2023-03-29T07:32:47.208Z,68
2023-03-29T07:34:17.441Z,68
2023-03-29T07:35:47.886Z,68
2023-03-29T07:37:18.123Z,68
2023-03-29T07:38:48.485Z,68
2023-03-29T07:40:18.890Z,68
2023-03-29T07:41:49.167Z,68
2023-03-29T07:43:19.572Z,68
2023-03-29T07:44:49.957Z,68
2023-03-29T07:46:20.355Z,68
2023-03-29T07:48:22.777Z,68
2023-03-29T07:49:53.170Z,68
2023-03-29T07:51:23.562Z,68
2023-03-29T07:52:53.896Z,68
2023-03-29T07:54:24.225Z,68
2023-03-29T07:55:54.548Z,68
2023-03-29T07:57:25.104Z,68
2023-03-29T07:58:55.371Z,68
2023-03-29T08:00:25.728Z,68
2023-03-29T08:01:56.046Z,68
2023-03-29T08:03:26.476Z,68
2023-03-29T08:04:56.885Z,68
2023-03-29T08:06:27.262Z,68
2023-03-29T08:07:57.582Z,68
2023-03-29T08:09:27.927Z,68
2023-03-29T08:10:58.332Z,69
2023-03-29T08:12:28.806Z,68
2023-03-29T08:13:59.171Z,68
2023-03-29T08:15:29.575Z,69
2023-03-29T08:16:59.981Z,68
2023-03-29T08:18:31.137Z,69
2023-03-29T08:20:00.741Z,68
2023-03-29T08:21:31.137Z,69
2023-03-29T08:23:01.480Z,68
2023-03-29T08:24:31.915Z,69
2023-03-29T08:26:02.199Z,68
2023-03-29T08:27:32.565Z,69
2023-03-29T08:29:02.783Z,69
2023-03-29T08:30:33.189Z,68
2023-03-29T08:32:03.535Z,69
2023-03-29T08:34:05.940Z,69
2023-03-29T08:35:36.284Z,68
2023-03-29T08:37:06.677Z,69
2023-03-29T08:38:37.104Z,69
2023-03-29T08:40:07.465Z,69
2023-03-29T08:41:37.795Z,69
2023-03-29T08:43:40.205Z,68
2023-03-29T08:45:10.519Z,69
2023-03-29T08:46:40.905Z,69
2023-03-29T08:48:11.292Z,68
2023-03-29T08:49:41.696Z,69
2023-03-29T08:51:12.000Z,69
2023-03-29T08:52:42.384Z,69
2023-03-29T08:54:12.741Z,69
2023-03-29T08:55:43.160Z,69
2023-03-29T08:57:13.588Z,69
2023-03-29T08:59:15.949Z,69
2023-03-29T09:00:46.377Z,69
2023-03-29T09:02:16.906Z,69
2023-03-29T09:04:19.263Z,69
2023-03-29T09:05:49.693Z,69
2023-03-29T09:07:20.157Z,68
2023-03-29T09:08:50.560Z,68
2023-03-29T09:10:20.939Z,69
2023-03-29T09:11:51.273Z,69
2023-03-29T09:13:21.738Z,69
2023-03-29T09:14:52.090Z,69
2023-03-29T09:16:22.449Z,69
2023-03-29T09:17:52.829Z,69
2023-03-29T09:19:23.163Z,69
2023-03-29T09:20:53.595Z,69
2023-03-29T09:22:23.929Z,69
2023-03-29T09:24:26.493Z,69
2023-03-29T09:25:56.660Z,69
2023-03-29T09:27:27.063Z,69
2023-03-29T09:29:29.466Z,69
2023-03-29T09:30:59.921Z,69
2023-03-29T09:32:30.220Z,69
2023-03-29T09:34:00.612Z,69
2023-03-29T09:35:31.061Z,69
2023-03-29T09:37:01.338Z,69
2023-03-29T09:38:31.714Z,69
2023-03-29T09:40:03.877Z,69
2023-03-29T09:41:32.840Z,69
2023-03-29T09:43:03.240Z,69
2023-03-29T09:44:33.648Z,69
2023-03-29T09:46:03.994Z,69
2023-03-29T09:47:34.420Z,69
2023-03-29T09:49:04.843Z,69
2023-03-29T09:50:35.231Z,69
2023-03-29T09:52:05.539Z,69
2023-03-29T09:53:35.899Z,69
2023-03-29T09:55:06.313Z,69
2023-03-29T09:56:36.610Z,69
2023-03-29T09:58:06.969Z,69
2023-03-29T10:00:09.272Z,69
2023-03-29T10:01:39.642Z,69
2023-03-29T10:03:10.768Z,69
2023-03-29T10:05:12.415Z,69
2023-03-29T10:06:42.802Z,69
2023-03-29T10:08:13.159Z,69
2023-03-29T10:09:43.546Z,69
2023-03-29T10:11:13.990Z,69
2023-03-29T10:12:44.267Z,70
2023-03-29T10:14:14.646Z,70
2023-03-29T10:15:45.060Z,70
2023-03-29T10:17:15.343Z,69
2023-03-29T10:18:45.694Z,69
2023-03-29T10:20:48.123Z,70
2023-03-29T10:22:18.447Z,70
2023-03-29T10:23:48.907Z,70
2023-03-29T10:25:19.277Z,70
2023-03-29T10:26:49.678Z,70
2023-03-29T10:28:19.948Z,70
2023-03-29T10:29:50.319Z,70
2023-03-29T10:31:20.704Z,70
2023-03-29T10:32:51.004Z,70
2023-03-29T10:34:21.350Z,70
2023-03-29T10:36:23.755Z,70
2023-03-29T10:37:54.173Z,70
2023-03-29T10:39:24.526Z,70
2023-03-29T10:40:54.932Z,70
2023-03-29T10:42:25.398Z,70
2023-03-29T10:43:55.781Z,70
2023-03-29T10:45:26.169Z,70
2023-03-29T10:46:56.599Z,70
2023-03-29T10:48:26.918Z,70
2023-03-29T10:49:57.469Z,70
2023-03-29T10:51:27.781Z,70
2023-03-29T10:52:58.200Z,70
2023-03-29T10:54:28.619Z,70
2023-03-29T10:55:59.003Z,70
2023-03-29T10:57:29.487Z,70
2023-03-29T10:58:59.679Z,70
2023-03-29T11:01:02.301Z,70
2023-03-29T11:02:32.626Z,70
2023-03-29T11:04:03.042Z,70
2023-03-29T11:06:05.326Z,70
2023-03-29T11:07:35.738Z,70
2023-03-29T11:09:06.210Z,70
2023-03-29T11:11:08.643Z,70
2023-03-29T11:12:39.004Z,70
2023-03-29T11:14:09.417Z,70
2023-03-29T11:15:39.811Z,70
2023-03-29T11:17:10.096Z,70
2023-03-29T11:18:40.510Z,70
2023-03-29T11:20:10.868Z,70
2023-03-29T11:21:41.245Z,70
2023-03-29T11:23:11.568Z,70
2023-03-29T11:24:41.929Z,70
2023-03-29T11:26:12.307Z,70
2023-03-29T11:27:42.647Z,70
2023-03-29T11:29:12.994Z,70
2023-03-29T11:30:43.375Z,70
2023-03-29T11:32:13.819Z,70
2023-03-29T11:33:44.230Z,70
2023-03-29T11:35:14.662Z,70
2023-03-29T11:36:45.044Z,71
2023-03-29T11:38:15.347Z,71
2023-03-29T11:39:45.707Z,71
2023-03-29T11:41:16.111Z,71
2023-03-29T11:42:46.554Z,71
2023-03-29T11:44:16.931Z,71
2023-03-29T11:45:47.306Z,71
2023-03-29T11:47:17.503Z,71
2023-03-29T11:49:19.968Z,71
2023-03-29T11:50:50.406Z,71
2023-03-29T11:52:20.799Z,71
2023-03-29T11:53:51.212Z,71
2023-03-29T11:55:21.697Z,71
2023-03-29T11:56:52.177Z,71
2023-03-29T11:58:22.491Z,71
2023-03-29T11:59:52.912Z,71
2023-03-29T12:01:23.314Z,71
2023-03-29T12:02:53.762Z,71
2023-03-29T12:04:24.186Z,71
2023-03-29T12:05:54.498Z,71
2023-03-29T12:07:56.927Z,71
2023-03-29T12:09:27.337Z,71
2023-03-29T12:10:57.713Z,71
2023-03-29T12:13:00.128Z,71
2023-03-29T12:14:30.470Z,71
2023-03-29T12:16:00.848Z,71
2023-03-29T12:18:03.247Z,71
2023-03-29T12:19:33.574Z,71
2023-03-29T12:21:03.937Z,71
2023-03-29T12:23:06.342Z,72
2023-03-29T12:24:36.768Z,71
2023-03-29T12:26:07.238Z,71
2023-03-29T12:28:09.661Z,71
2023-03-29T12:29:40.125Z,71
2023-03-29T12:31:10.546Z,71
2023-03-29T12:32:40.925Z,71
2023-03-29T12:34:11.218Z,72
2023-03-29T12:35:41.581Z,71
2023-03-29T12:37:11.992Z,71
2023-03-29T12:38:42.289Z,72
2023-03-29T12:40:12.620Z,73
2023-03-29T12:41:42.975Z,72
2023-03-29T12:43:13.343Z,73
2023-03-29T12:44:43.802Z,73
2023-03-29T12:46:14.171Z,73
2023-03-29T12:47:44.551Z,73
2023-03-29T12:49:14.926Z,73
2023-03-29T12:50:45.229Z,73
2023-03-29T12:52:15.671Z,73
2023-03-29T12:53:46.081Z,73
2023-03-29T12:55:16.399Z,73
2023-03-29T12:56:46.744Z,73
2023-03-29T12:58:17.136Z,73
2023-03-29T12:59:47.616Z,73
2023-03-29T13:01:17.953Z,73
2023-03-29T13:02:48.367Z,73
2023-03-29T13:04:18.666Z,73
2023-03-29T13:05:48.957Z,74
2023-03-29T13:07:19.393Z,73
2023-03-29T13:09:21.804Z,73
2023-03-29T13:10:52.217Z,73
2023-03-29T13:12:22.648Z,73
2023-03-29T13:13:53.051Z,73
2023-03-29T13:15:23.519Z,74
2023-03-29T13:16:53.945Z,74
2023-03-29T13:18:24.328Z,74
2023-03-29T13:19:54.771Z,74
2023-03-29T13:21:25.187Z,74
2023-03-29T13:22:55.592Z,74
2023-03-29T13:24:25.983Z,74
2023-03-29T13:25:56.432Z,74
2023-03-29T13:27:26.859Z,74
2023-03-29T13:28:58.444Z,74
2023-03-29T13:30:27.587Z,74
2023-03-29T13:31:57.914Z,74
2023-03-29T13:33:28.308Z,74
2023-03-29T13:34:58.724Z,74
2023-03-29T13:36:30.720Z,74
2023-03-29T13:37:59.665Z,74
2023-03-29T13:39:30.082Z,74
2023-03-29T13:41:00.433Z,74
2023-03-29T13:42:30.768Z,74
2023-03-29T13:44:01.143Z,74
2023-03-29T13:45:31.477Z,74
2023-03-29T13:47:01.899Z,74
2023-03-29T13:48:32.241Z,74
2023-03-29T13:50:02.518Z,74
2023-03-29T13:51:32.992Z,74
2023-03-29T13:53:35.412Z,74
2023-03-29T13:55:05.856Z,74
2023-03-29T13:56:36.171Z,74
2023-03-29T13:58:06.592Z,74
2023-03-29T13:59:37.011Z,74
2023-03-29T14:01:07.456Z,74
2023-03-29T14:02:37.855Z,74
2023-03-29T14:04:40.206Z,74
2023-03-29T14:06:10.603Z,74
2023-03-29T14:07:40.952Z,74
2023-03-29T14:09:11.335Z,74
2023-03-29T14:10:41.670Z,74
2023-03-29T14:12:12.130Z,74
2023-03-29T14:14:14.582Z,74
2023-03-29T14:15:44.966Z,74
2023-03-29T14:17:15.397Z,74
2023-03-29T14:19:17.780Z,74
2023-03-29T14:20:48.164Z,74
2023-03-29T14:22:18.547Z,74
2023-03-29T14:23:48.925Z,74
2023-03-29T14:25:19.344Z,74
2023-03-29T14:26:49.648Z,74
2023-03-29T14:28:20.127Z,74
2023-03-29T14:30:22.526Z,74
2023-03-29T14:31:52.925Z,74
2023-03-29T14:33:23.241Z,74
2023-03-29T14:34:53.585Z,74
2023-03-29T14:36:24.098Z,74
2023-03-29T14:37:54.478Z,74
2023-03-29T14:39:24.869Z,74
2023-03-29T14:40:55.271Z,74
2023-03-29T14:42:25.614Z,74
2023-03-29T14:43:56.100Z,74
2023-03-29T14:45:26.432Z,74
2023-03-29T14:46:56.743Z,74
2023-03-29T14:48:27.178Z,74
2023-03-29T14:50:29.532Z,74
2023-03-29T14:51:59.962Z,74
2023-03-29T14:53:30.331Z,75
2023-03-29T14:55:32.751Z,75
2023-03-29T14:57:03.077Z,75
2023-03-29T14:58:33.510Z,75
2023-03-29T15:00:03.898Z,75
2023-03-29T15:01:34.347Z,75
2023-03-29T15:03:04.741Z,75
2023-03-29T15:05:07.137Z,76
2023-03-29T15:06:37.534Z,75
2023-03-29T15:08:07.938Z,75
2023-03-29T15:09:38.256Z,75
2023-03-29T15:11:08.696Z,75
2023-03-29T15:12:39.094Z,75
2023-03-29T15:14:09.547Z,75
2023-03-29T15:15:39.977Z,75
2023-03-29T15:17:10.334Z,75
2023-03-29T15:18:40.731Z,75
2023-03-29T15:20:43.239Z,75
2023-03-29T15:22:13.461Z,75
2023-03-29T15:23:43.814Z,75
2023-03-29T15:25:14.200Z,75
2023-03-29T15:26:44.616Z,75
2023-03-29T15:28:14.966Z,75
2023-03-29T15:29:45.356Z,75
2023-03-29T15:31:15.732Z,75
2023-03-29T15:32:46.228Z,75
2023-03-29T15:34:16.551Z,75
2023-03-29T15:35:47.024Z,75
2023-03-29T15:37:17.385Z,75
2023-03-29T15:38:47.703Z,75
2023-03-29T15:40:18.163Z,75
2023-03-29T15:41:48.496Z,75
2023-03-29T15:43:18.854Z,75
2023-03-29T15:44:49.266Z,75
2023-03-29T15:46:19.722Z,75
2023-03-29T15:47:49.994Z,75
2023-03-29T15:51:28.122Z,74
2023-03-29T15:53:05.345Z,74
2023-03-29T15:54:28.756Z,74
2023-03-29T15:55:59.161Z,74
2023-03-29T15:57:29.631Z,74
2023-03-29T15:58:59.930Z,74
2023-03-29T16:01:02.362Z,74
2023-03-29T16:02:32.747Z,74
2023-03-29T16:04:03.018Z,74
2023-03-29T16:05:33.400Z,74
2023-03-29T16:07:03.750Z,74
2023-03-29T16:08:34.035Z,74
2023-03-29T16:10:04.387Z,75
2023-03-29T16:11:34.792Z,75
2023-03-29T16:13:05.196Z,74
2023-03-29T16:14:35.564Z,74
2023-03-29T16:16:06.113Z,74
2023-03-29T16:17:36.187Z,74
2023-03-29T16:19:06.519Z,74
2023-03-29T16:20:36.883Z,74
2023-03-29T16:22:07.727Z,74
2023-03-29T16:23:37.622Z,74
2023-03-29T16:25:07.971Z,74
2023-03-29T16:26:38.348Z,74
2023-03-29T16:28:08.684Z,74
2023-03-29T16:29:39.053Z,74
2023-03-29T16:31:41.518Z,74
2023-03-29T16:33:11.913Z,74
2023-03-29T16:34:42.264Z,74
2023-03-29T16:36:44.677Z,74
2023-03-29T16:38:15.129Z,74
2023-03-29T16:39:45.559Z,74
2023-03-29T16:41:16.229Z,74
2023-03-29T16:42:46.236Z,74
2023-03-29T16:44:16.868Z,74
2023-03-29T16:45:47.414Z,74
2023-03-29T16:47:17.717Z,74
2023-03-29T16:48:48.126Z,74
2023-03-29T16:50:18.506Z,74
2023-03-29T16:52:20.932Z,74
2023-03-29T16:53:51.373Z,74
2023-03-29T16:55:21.712Z,74
2023-03-29T16:56:52.209Z,74
2023-03-29T16:58:22.613Z,74
2023-03-29T16:59:53.066Z,74
2023-03-29T17:01:55.595Z,74
2023-03-29T17:03:25.891Z,73
2023-03-29T17:04:56.420Z,74
2023-03-29T17:06:58.794Z,73
2023-03-29T17:08:29.107Z,73
2023-03-29T17:09:59.471Z,73
2023-03-29T17:11:29.886Z,73
2023-03-29T17:13:00.435Z,73
2023-03-29T17:14:30.650Z,73
2023-03-29T17:16:01.244Z,73
2023-03-29T17:17:31.363Z,73
2023-03-29T17:19:01.751Z,73
2023-03-29T17:20:32.142Z,73
2023-03-29T17:22:02.484Z,73
2023-03-29T17:23:32.791Z,73
2023-03-29T17:25:03.139Z,73
2023-03-29T17:26:33.489Z,73
2023-03-29T17:28:35.900Z,73
2023-03-29T17:30:06.316Z,73
2023-03-29T17:31:36.759Z,73
2023-03-29T17:33:07.090Z,73
2023-03-29T17:34:37.468Z,73
2023-03-29T17:36:08.227Z,73
2023-03-29T17:37:38.213Z,73
2023-03-29T17:39:08.529Z,73
2023-03-29T17:40:38.930Z,73
2023-03-29T17:42:41.352Z,73
2023-03-29T17:44:11.657Z,73
2023-03-29T17:45:41.988Z,73
2023-03-29T17:47:12.379Z,73
2023-03-29T17:48:42.803Z,73
2023-03-29T17:50:13.234Z,73
2023-03-29T17:51:43.669Z,73
2023-03-29T17:53:46.141Z,73
2023-03-29T17:55:16.526Z,73
2023-03-29T17:56:46.900Z,73
2023-03-29T17:58:17.273Z,73
2023-03-29T17:59:47.587Z,73
2023-03-29T18:01:17.931Z,73
2023-03-29T18:02:48.427Z,73
2023-03-29T18:04:18.795Z,73
2023-03-29T18:05:49.143Z,73
2023-03-29T18:07:19.519Z,73
2023-03-29T18:08:49.891Z,73
2023-03-29T18:10:20.707Z,73
2023-03-29T18:11:50.822Z,73
2023-03-29T18:13:53.119Z,73
2023-03-29T18:15:23.532Z,73
2023-03-29T18:16:53.877Z,73
2023-03-29T18:18:24.273Z,73
2023-03-29T18:19:54.689Z,73
2023-03-29T18:21:25.169Z,72
2023-03-29T18:22:55.533Z,72
2023-03-29T18:24:25.952Z,72
2023-03-29T18:25:56.364Z,72
2023-03-29T18:27:26.753Z,72
2023-03-29T18:29:29.139Z,72
2023-03-29T18:30:59.467Z,72
2023-03-29T18:32:29.811Z,73
2023-03-29T18:34:00.200Z,72
2023-03-29T18:35:30.657Z,72
2023-03-29T18:37:00.970Z,72
2023-03-29T18:38:31.351Z,72
2023-03-29T18:40:01.798Z,72
2023-03-29T18:41:32.110Z,72
2023-03-29T18:43:02.548Z,72
2023-03-29T18:44:32.920Z,72
2023-03-29T18:46:03.547Z,72
2023-03-29T18:47:33.659Z,72
2023-03-29T18:49:03.976Z,72
2023-03-29T18:50:34.312Z,72
2023-03-29T18:52:04.656Z,72
2023-03-29T18:53:35.039Z,72
2023-03-29T18:55:05.343Z,72
2023-03-29T18:56:35.678Z,72
2023-03-29T18:58:06.065Z,72
2023-03-29T19:00:08.478Z,72
2023-03-29T19:01:38.943Z,72
2023-03-29T19:03:09.516Z,72
2023-03-29T19:04:39.757Z,72
2023-03-29T19:06:10.144Z,72
2023-03-29T19:07:40.486Z,72
2023-03-29T19:09:10.878Z,72
2023-03-29T19:10:41.196Z,72
2023-03-29T19:12:11.645Z,72
2023-03-29T19:13:42.055Z,72
2023-03-29T19:15:12.349Z,72
2023-03-29T19:16:42.940Z,72
2023-03-29T19:18:13.025Z,72
2023-03-29T19:20:15.466Z,72
2023-03-29T19:21:45.866Z,72
2023-03-29T19:23:16.244Z,72
2023-03-29T19:24:46.611Z,72
2023-03-29T19:26:16.932Z,72
2023-03-29T19:27:47.280Z,72
2023-03-29T19:29:17.690Z,72
2023-03-29T19:30:47.990Z,72
2023-03-29T19:32:18.297Z,72
2023-03-29T19:33:48.638Z,72
2023-03-29T19:35:19.040Z,72
2023-03-29T19:36:49.443Z,72
2023-03-29T19:38:19.810Z,72
2023-03-29T19:39:50.199Z,72
2023-03-29T19:41:20.606Z,72
2023-03-29T19:42:50.965Z,72
2023-03-29T19:44:21.377Z,72
2023-03-29T19:45:51.663Z,72
2023-03-29T19:47:21.976Z,72
2023-03-29T19:48:52.340Z,72
2023-03-29T19:50:54.764Z,72
2023-03-29T19:52:25.175Z,72
2023-03-29T19:53:55.521Z,72
2023-03-29T19:55:25.929Z,72
2023-03-29T19:56:56.303Z,72
2023-03-29T19:58:26.603Z,72
2023-03-29T20:00:29.056Z,72
2023-03-29T20:01:59.496Z,72
2023-03-29T20:03:29.843Z,72
2023-03-29T20:05:32.232Z,72
2023-03-29T20:07:02.643Z,72
2023-03-29T20:08:33.002Z,72
2023-03-29T20:10:03.399Z,72
2023-03-29T20:11:33.716Z,72
2023-03-29T20:13:04.114Z,72
2023-03-29T20:14:34.456Z,72
2023-03-29T20:16:04.905Z,72
2023-03-29T20:17:35.201Z,72
2023-03-29T20:19:05.596Z,72
2023-03-29T20:20:35.943Z,72
2023-03-29T20:22:06.331Z,72
2023-03-29T20:23:36.962Z,72
2023-03-29T20:25:07.261Z,72
2023-03-29T20:26:37.742Z,72
2023-03-29T20:28:08.145Z,72
2023-03-29T20:29:38.584Z,72
2023-03-29T20:31:08.999Z,72
2023-03-29T20:32:39.399Z,72
2023-03-29T20:34:09.829Z,72
2023-03-29T20:35:40.270Z,72
2023-03-29T20:37:10.561Z,72
2023-03-29T20:38:40.971Z,72
2023-03-29T20:40:11.381Z,72
2023-03-29T20:41:41.701Z,72
2023-03-29T20:43:12.096Z,72
2023-03-29T20:44:42.467Z,72
2023-03-29T20:46:44.981Z,72
2023-03-29T20:48:15.328Z,72
2023-03-29T20:49:45.658Z,72
2023-03-29T20:51:16.045Z,72
2023-03-29T20:52:46.363Z,72
2023-03-29T20:54:16.725Z,72
2023-03-29T20:55:47.097Z,72
2023-03-29T20:57:17.497Z,72
2023-03-29T20:58:47.761Z,72
2023-03-29T21:00:18.203Z,72
2023-03-29T21:02:20.749Z,72
2023-03-29T21:03:50.997Z,72
2023-03-29T21:05:21.415Z,72
2023-03-29T21:07:23.837Z,72
2023-03-29T21:08:54.164Z,72
2023-03-29T21:10:24.505Z,72
2023-03-29T21:11:54.882Z,72
2023-03-29T21:13:25.208Z,72
2023-03-29T21:14:55.650Z,72
2023-03-29T21:16:26.113Z,72
2023-03-29T21:17:56.611Z,72
2023-03-29T21:19:26.834Z,72
2023-03-29T21:20:57.207Z,72
2023-03-29T21:22:27.626Z,72
2023-03-29T21:23:58.063Z,72
2023-03-29T21:25:28.395Z,72
2023-03-29T21:26:58.783Z,72
2023-03-29T21:28:29.090Z,72
2023-03-29T21:29:59.466Z,72
2023-03-29T21:32:01.936Z,72
2023-03-29T21:33:32.249Z,72
2023-03-29T21:35:02.653Z,72
2023-03-29T21:36:33.050Z,72
2023-03-29T21:38:03.468Z,72
2023-03-29T21:39:33.760Z,72
2023-03-29T21:41:04.332Z,72
2023-03-29T21:42:34.526Z,72
2023-03-29T21:44:04.840Z,72
2023-03-29T21:45:35.294Z,72
2023-03-29T21:47:05.855Z,72
2023-03-29T21:48:36.119Z,72
2023-03-29T21:50:06.456Z,72
2023-03-29T21:52:08.892Z,73
2023-03-29T21:53:39.189Z,72
2023-03-29T21:55:09.548Z,73
2023-03-29T21:56:39.973Z,73
2023-03-29T21:58:10.256Z,73
2023-03-29T21:59:40.706Z,73
2023-03-29T22:01:11.071Z,73
2023-03-29T22:02:41.681Z,73
2023-03-29T22:04:13.185Z,73
2023-03-29T22:05:42.080Z,73
2023-03-29T22:07:12.476Z,73
2023-03-29T22:08:42.891Z,73